EmailTwitter


Observations de surface / Royaume-Uni / EGLL (03772)

Régions: Québec | Canada | États-Unis | Europe | France | UK | Ailleurs
Station
Affichage
Infos & localisation pour EGLL (03772) | Aide pour décoder les METARs

Observations prises le 2020-04-09 à 13H50 UTC à LONDON/HEATHROW, UK (EGLL)

Température: 22.0 Celsius

Point de rosée: 9.0 Celsius

Humidité relative: 43%

Vents: Est à 13 km/h ou 7 noeuds.

Pression au niveau moyen de la mer: 102.40 kilopascals.

Visibilité horizontale: 6.21 milles terrestres ou 9.94 kilomètres.

Observation METAR:

EGLL 091350Z AUTO 08007KT 050V120 9999 NCD 22/09 Q1024 NOSIG=